METAR Data
IDs: Format: Raw Decoded Include TAF

Data at: 0654 UTC 01 Aug 2021

LIPE 010620Z 10004KT 050V130 CAVOK 27/19 Q1003